This is the latest recevied weather packets stored in our database for station/object FW1079. If no packets are shown the sender has not sent any weather packets the latest 10 day(s).
| Time | Temp. | Humidity | Pressure | Rain* | Wind** | Luminosity | Snow |
|---|---|---|---|---|---|---|---|
| 1777445054 | 16.11° C | 71% | 1016 hPa | 0 mm | - | - | - |
| 1777443554 | 14.44° C | 77% | 1016 hPa | 0 mm | - | - | - |
| 1777440851 | 12.22° C | 85% | 1016 hPa | 0 mm | - | - | - |
| 1777437251 | 11.67° C | 87% | 1015 hPa | 0 mm | - | - | - |
| 1777434851 | 11.67° C | 88% | 1015 hPa | 0 mm | - | - | - |
| 1777434555 | 11.67° C | 88% | 1015 hPa | 0 mm | - | - | - |
| 1777432152 | 12.22° C | 88% | 1015 hPa | 0 mm | - | - | - |
| 1777431254 | 12.22° C | 88% | 1015 hPa | 0 mm | - | - | - |
| 1777430651 | 12.22° C | 89% | 1015 hPa | 0 mm | - | - | - |
| 1777429151 | 12.22° C | 88% | 1015 hPa | 0 mm | - | - | - |
| 1777428251 | 12.22° C | 88% | 1015 hPa | 0 mm | - | - | - |
| 1777425851 | 12.22° C | 89% | 1015 hPa | 0 mm | - | - | - |
| 1777424351 | 12.78° C | 89% | 1015 hPa | 0 mm | - | - | - |
| 1777422850 | 12.78° C | 89% | 1015 hPa | 0 mm | - | - | - |
| 1777422551 | 12.78° C | 89% | 1015 hPa | 0 mm | - | - | - |
| 1777421950 | 13.33° C | 89% | 1015 hPa | 0 mm | - | - | - |
| 1777419851 | 13.33° C | 90% | 1015 hPa | 0 mm | - | - | - |
| 1777419550 | 13.33° C | 90% | 1015 hPa | 0 mm | - | - | - |
| 1777418051 | 13.33° C | 88% | 1016 hPa | 0 mm | - | - | - |
| 1777415954 | 13.89° C | 87% | 1016 hPa | 0 mm | - | - | - |
| 1777406351 | 17.22° C | 79% | 1016 hPa | 0 mm | - | - | - |
| 1777406050 | 17.22° C | 79% | 1016 hPa | 0 mm | - | - | - |
| 1777405450 | 17.22° C | 78% | 1015 hPa | 0 mm | - | - | - |
| 1777405153 | 17.22° C | 78% | 1015 hPa | 0 mm | - | - | - |
| 1777404551 | 17.22° C | 78% | 1015 hPa | 0 mm | - | - | - |
* Rain latest hour (hover to see other rain measurements)
** Current wind speed in m/s (hover to see current wind gust speed)